Time;durP1;ratioP1;P1;durP2;ratioP2;P2;SDS_P1;SDS_P2;PMS_P1;PMS_P2;Temp;Humidity;BMP_temperature;BMP_pressure;BME280_temperature;BME280_humidity;BME280_pressure;Samples;Min_cycle;Max_cycle;Signal;HPM_P1;HPM_P2
2023/12/15 00:01:52;;;;;;;7.40;4.27;;;4.70;99.90;;;6.38;67.15;98710.03;5031085;28;20045;-52
2023/12/15 00:04:20;;;;;;;9.77;4.30;;;4.70;99.90;;;6.37;66.79;98699.56;5032885;28;20046;-55
2023/12/15 00:06:47;;;;;;;8.53;4.63;;;4.70;98.30;;;6.29;66.70;98708.03;5032354;28;20473;-52
2023/12/15 00:09:15;;;;;;;9.03;4.87;;;4.70;99.90;;;6.35;66.78;98717.34;5032315;28;20505;-55
2023/12/15 00:11:43;;;;;;;8.70;4.53;;;4.70;99.90;;;6.24;67.25;98712.81;5031780;28;20056;-54
2023/12/15 00:14:10;;;;;;;10.53;5.27;;;4.60;98.60;;;6.28;66.75;98717.78;5031311;28;20046;-51
2023/12/15 00:16:38;;;;;;;12.07;5.67;;;4.60;99.90;;;6.38;66.62;98715.34;5031868;28;20048;-55
2023/12/15 00:19:05;;;;;;;10.87;5.20;;;4.70;99.90;;;6.46;67.11;98714.78;5032093;28;20057;-54
2023/12/15 00:21:33;;;;;;;10.03;5.07;;;4.80;99.90;;;6.50;66.65;98719.75;5031959;28;20040;-52
2023/12/15 00:24:02;;;;;;;9.43;5.57;;;4.80;98.90;;;6.50;66.57;98722.38;5032451;28;20037;-54
2023/12/15 00:26:30;;;;;;;9.67;5.73;;;4.80;99.80;;;6.58;66.39;98723.66;5031615;28;20716;-54
2023/12/15 00:28:57;;;;;;;9.07;4.97;;;4.90;99.20;;;6.60;66.27;98721.75;5032041;28;20049;-53
2023/12/15 00:31:25;;;;;;;10.60;5.33;;;4.90;98.70;;;6.63;66.14;98730.31;5031653;28;20053;-53
2023/12/15 00:33:52;;;;;;;11.53;6.03;;;4.90;98.90;;;6.63;66.49;98734.72;5031923;28;20049;-54
2023/12/15 00:36:20;;;;;;;11.83;6.47;;;4.90;97.50;;;6.64;66.57;98731.97;5031336;28;20045;-55
2023/12/15 00:38:48;;;;;;;11.43;6.53;;;4.90;98.00;;;6.67;66.42;98736.22;5030216;28;20050;-54
2023/12/15 00:41:15;;;;;;;8.37;5.40;;;4.90;98.30;;;6.73;66.66;98735.78;5031634;28;20068;-52
2023/12/15 00:43:43;;;;;;;11.40;6.80;;;5.00;98.40;;;6.79;66.03;98742.44;5031939;28;20041;-53
2023/12/15 00:46:11;;;;;;;11.47;5.93;;;5.00;98.10;;;6.79;66.14;98737.16;5030921;28;20051;-55
2023/12/15 00:48:38;;;;;;;11.80;6.13;;;5.00;97.30;;;6.79;65.93;98745.09;5031284;28;20057;-54
2023/12/15 00:51:06;;;;;;;13.17;6.67;;;5.00;96.70;;;6.78;65.97;98743.38;5031441;28;20053;-55
2023/12/15 00:53:34;;;;;;;10.17;5.60;;;5.00;98.00;;;6.81;66.02;98749.31;5031214;28;20359;-54
2023/12/15 00:56:01;;;;;;;11.33;6.73;;;5.00;98.10;;;6.84;66.04;98746.44;5031408;28;20038;-54
2023/12/15 00:58:29;;;;;;;10.93;5.77;;;5.00;98.20;;;6.84;65.73;98754.41;5030935;28;20072;-51
2023/12/15 01:00:57;;;;;;;11.40;5.57;;;5.00;97.50;;;6.86;66.03;98754.25;5031375;28;20040;-52
2023/12/15 01:03:24;;;;;;;10.03;5.93;;;5.00;97.90;;;6.84;66.16;98761.47;5029994;28;20045;-54
2023/12/15 01:05:52;;;;;;;12.43;6.27;;;5.00;97.00;;;6.84;65.78;98764.13;5031439;28;20057;-54
2023/12/15 01:08:20;;;;;;;11.33;6.20;;;4.90;98.10;;;6.81;65.73;98782.88;5030714;28;20045;-51
2023/12/15 01:10:47;;;;;;;9.87;5.43;;;4.90;98.20;;;6.80;65.90;98765.28;5030375;28;20045;-54
2023/12/15 01:13:15;;;;;;;13.53;6.57;;;4.90;98.10;;;6.81;66.47;98781.06;5030941;28;20049;-53
2023/12/15 01:15:43;;;;;;;11.17;5.50;;;5.00;97.20;;;6.79;65.66;98782.97;5031301;28;20049;-54
2023/12/15 01:18:11;;;;;;;11.17;6.87;;;5.00;98.20;;;6.79;65.67;98785.63;5027204;28;20098;-54
2023/12/15 01:20:39;;;;;;;11.37;5.67;;;4.90;98.10;;;6.81;66.44;98790.81;5023063;28;20038;-54
2023/12/15 01:23:07;;;;;;;10.40;6.07;;;5.00;98.70;;;6.81;65.97;98798.75;5031175;28;20057;-53
2023/12/15 01:25:34;;;;;;;12.60;6.03;;;5.00;97.70;;;6.76;65.82;98795.59;5028231;28;20048;-54
2023/12/15 01:28:02;;;;;;;8.50;5.20;;;4.90;98.20;;;6.62;65.76;98804.50;5028296;28;20053;-55
2023/12/15 01:30:29;;;;;;;10.13;6.13;;;4.80;98.30;;;6.55;66.12;98803.22;5030786;28;20061;-54
2023/12/15 01:32:57;;;;;;;9.20;5.23;;;4.80;97.90;;;6.50;66.47;98811.50;5029824;28;20041;-54
2023/12/15 01:35:25;;;;;;;6.50;4.30;;;4.70;98.30;;;6.48;65.97;98810.75;5030943;28;20421;-55
2023/12/15 01:37:52;;;;;;;8.37;5.07;;;4.70;99.30;;;6.45;66.09;98811.81;5030638;28;20038;-51
2023/12/15 01:40:20;;;;;;;9.60;5.73;;;4.70;99.60;;;6.48;66.42;98811.59;5030905;28;20049;-55
2023/12/15 01:42:48;;;;;;;10.87;6.00;;;4.70;99.90;;;6.53;66.19;98816.56;5030572;28;20056;-55
2023/12/15 01:45:15;;;;;;;9.23;6.20;;;4.80;99.90;;;6.56;66.22;98815.53;5031436;28;20048;-55
2023/12/15 01:47:44;;;;;;;11.50;6.43;;;4.80;99.10;;;6.48;66.43;98824.00;5029445;28;20048;-53
2023/12/15 01:50:12;;;;;;;10.80;6.83;;;4.70;99.10;;;6.41;66.35;98828.84;5030890;28;20056;-53
2023/12/15 01:52:39;;;;;;;11.57;6.20;;;4.60;99.10;;;6.45;66.45;98826.84;5030646;28;20501;-54
2023/12/15 01:55:07;;;;;;;12.73;6.60;;;4.60;99.90;;;6.37;65.83;98832.66;5030768;28;20416;-53
2023/12/15 01:57:35;;;;;;;11.10;6.37;;;4.60;99.60;;;6.36;66.16;98824.81;5030174;28;20056;-51
2023/12/15 02:00:07;;;;;;;11.47;6.63;;;4.50;99.90;;;6.40;66.31;98826.34;5030467;28;20056;-56
2023/12/15 02:02:38;;;;;;;11.87;6.53;;;4.60;99.90;;;6.35;66.60;98823.97;5030670;28;20451;-55
2023/12/15 02:05:06;;;;;;;12.87;6.07;;;4.50;99.00;;;6.35;66.20;98829.28;5030426;28;20041;-53
2023/12/15 02:07:34;;;;;;;11.27;6.13;;;4.50;99.80;;;6.33;66.06;98825.06;5030274;28;20061;-55
2023/12/15 02:10:03;;;;;;;10.00;5.43;;;4.50;99.60;;;6.22;66.47;98826.66;5030672;28;20049;-54
2023/12/15 02:12:31;;;;;;;12.97;6.70;;;4.40;99.90;;;6.18;66.73;98835.72;5030348;28;20045;-54
2023/12/15 02:14:58;;;;;;;12.00;6.13;;;4.40;99.90;;;6.21;66.77;98838.16;5030614;28;20050;-54
2023/12/15 02:17:26;;;;;;;9.60;5.53;;;4.50;99.80;;;6.10;66.73;98838.88;5030597;28;20485;-53
2023/12/15 02:19:54;;;;;;;12.07;6.67;;;4.40;99.20;;;6.16;66.28;98845.53;5030323;28;20045;-54
2023/12/15 02:22:28;;;;;;;10.53;5.37;;;4.40;99.80;;;6.21;66.50;98851.38;5030179;28;20366;-55
2023/12/15 02:24:56;;;;;;;8.73;4.77;;;4.50;99.60;;;6.15;66.96;98850.97;5030611;28;20296;-51
2023/12/15 02:27:23;;;;;;;7.73;4.47;;;4.50;98.00;;;6.24;66.41;98850.31;5029159;28;20493;-51
2023/12/15 02:29:51;;;;;;;8.40;4.90;;;4.60;98.60;;;6.24;66.33;98852.97;5029437;28;20048;-54
2023/12/15 02:32:19;;;;;;;9.53;5.67;;;4.60;98.00;;;6.23;66.43;98854.75;5029961;28;20041;-55
2023/12/15 02:34:46;;;;;;;11.37;5.80;;;4.50;98.60;;;6.27;66.25;98866.00;5030832;28;20193;-54
2023/12/15 02:37:14;;;;;;;11.30;5.97;;;4.50;98.70;;;6.21;66.53;98861.13;5032650;28;20056;-51
2023/12/15 02:39:41;;;;;;;10.37;5.70;;;4.50;99.30;;;6.28;66.44;98870.31;5034253;28;20420;-54
2023/12/15 02:42:09;;;;;;;10.70;6.20;;;4.50;99.50;;;6.27;66.67;98866.81;5033985;28;20424;-52
2023/12/15 02:44:37;;;;;;;10.13;4.87;;;4.50;98.40;;;6.27;66.47;98877.41;5034220;28;20048;-55
2023/12/15 02:47:04;;;;;;;10.27;6.17;;;4.50;99.10;;;6.31;66.52;98884.19;5032670;28;20057;-52
2023/12/15 02:49:39;;;;;;;7.73;5.37;;;4.50;99.60;;;6.31;66.90;98891.28;5034128;28;20057;-52
2023/12/15 02:52:08;;;;;;;10.17;5.90;;;4.60;99.90;;;6.32;66.59;98890.34;5033698;28;20512;-55
2023/12/15 02:54:35;;;;;;;9.80;5.80;;;4.60;99.70;;;6.23;66.60;98885.66;5032587;28;20056;-52
2023/12/15 02:57:03;;;;;;;9.30;5.67;;;4.50;99.00;;;6.23;67.10;98888.31;5033437;28;20515;-54
2023/12/15 02:59:31;;;;;;;7.57;4.70;;;4.50;99.90;;;6.27;66.51;98892.44;5032271;28;20042;-54
2023/12/15 03:01:58;;;;;;;11.13;5.53;;;4.50;98.90;;;6.26;66.40;98891.59;5033226;28;20046;-53
2023/12/15 03:04:26;;;;;;;9.13;6.17;;;4.60;99.90;;;6.29;66.72;98894.00;5033493;28;20044;-53
2023/12/15 03:06:55;;;;;;;8.40;4.93;;;4.60;99.70;;;6.28;66.44;98900.28;5033103;28;20516;-55
2023/12/15 03:09:23;;;;;;;10.40;6.87;;;4.60;99.60;;;6.21;66.88;98895.50;5033343;28;20397;-55
2023/12/15 03:11:50;;;;;;;7.30;5.60;;;4.50;99.00;;;6.17;67.10;98899.31;5033021;28;20054;-55
2023/12/15 03:14:18;;;;;;;8.50;5.27;;;4.50;99.20;;;6.24;66.68;98901.44;5033418;28;20045;-52
2023/12/15 03:16:46;;;;;;;11.27;6.00;;;4.50;99.90;;;6.25;67.00;98908.41;5033064;28;20037;-52
2023/12/15 03:19:13;;;;;;;9.23;5.87;;;4.50;99.40;;;6.10;66.88;98915.56;5032823;28;20052;-55
2023/12/15 03:21:41;;;;;;;7.83;5.23;;;4.40;99.40;;;6.11;66.71;98921.72;5031641;28;20057;-52
2023/12/15 03:24:08;;;;;;;9.30;5.57;;;4.40;99.90;;;6.12;66.83;98915.44;5033270;28;20052;-53
2023/12/15 03:26:36;;;;;;;9.30;5.60;;;4.40;99.80;;;6.11;67.20;98917.25;5033253;28;20413;-53
2023/12/15 03:29:04;;;;;;;8.47;5.67;;;4.40;99.90;;;6.10;67.00;98922.66;5032909;28;20116;-55
2023/12/15 03:31:31;;;;;;;11.23;6.13;;;4.40;99.90;;;6.07;67.05;98917.56;5032119;28;20421;-51
2023/12/15 03:33:59;;;;;;;10.03;6.07;;;4.40;99.90;;;6.18;66.90;98922.13;5032959;28;20053;-54
2023/12/15 03:36:27;;;;;;;12.00;6.30;;;4.50;99.90;;;6.21;67.37;98924.59;5030945;28;20056;-55
2023/12/15 03:38:55;;;;;;;9.77;6.30;;;4.50;99.60;;;6.20;67.29;98921.06;5032970;28;20049;-52
2023/12/15 03:41:22;;;;;;;10.00;6.60;;;4.50;99.60;;;6.09;67.28;98923.59;5032853;28;20488;-54
2023/12/15 03:43:50;;;;;;;9.30;5.93;;;4.50;99.60;;;6.11;67.13;98925.19;5032619;28;20041;-52
2023/12/15 03:46:17;;;;;;;11.83;6.23;;;4.40;99.80;;;6.10;67.31;98931.41;5032563;28;20523;-55
2023/12/15 03:48:45;;;;;;;10.17;5.37;;;4.40;99.90;;;6.07;67.19;98928.16;5031562;28;20045;-52
2023/12/15 03:51:13;;;;;;;11.43;6.67;;;4.40;99.30;;;6.10;66.88;98931.41;5032685;28;20120;-52
2023/12/15 03:53:41;;;;;;;9.50;5.63;;;4.40;99.90;;;6.07;67.17;98938.72;5032564;28;20057;-53
2023/12/15 03:56:09;;;;;;;9.30;6.10;;;4.40;99.20;;;6.09;67.70;98942.13;5032266;28;20423;-61
2023/12/15 03:58:37;;;;;;;10.80;5.43;;;4.40;99.90;;;6.16;66.87;98951.31;5032370;28;20052;-61
2023/12/15 04:01:04;;;;;;;9.43;5.50;;;4.50;98.80;;;6.28;67.07;98950.53;5032459;28;20050;-61
2023/12/15 04:03:32;;;;;;;9.60;6.27;;;4.60;99.90;;;6.33;67.08;98947.56;5032355;28;20515;-61
2023/12/15 04:06:01;;;;;;;10.63;6.37;;;4.70;99.60;;;6.39;67.24;98939.22;5032375;28;20543;-61
2023/12/15 04:08:29;;;;;;;11.40;6.80;;;4.70;99.50;;;6.46;66.63;98944.94;5032091;28;20053;-61
2023/12/15 04:10:57;;;;;;;9.27;5.97;;;4.70;98.60;;;6.47;66.78;98947.47;5032228;28;20052;-61
2023/12/15 04:13:25;;;;;;;9.03;5.53;;;4.70;98.50;;;6.52;66.71;98951.63;5030992;28;20508;-61
2023/12/15 04:15:52;;;;;;;10.63;6.43;;;4.80;98.80;;;6.55;66.60;98949.59;5023470;28;20052;-61
2023/12/15 04:18:24;;;;;;;11.43;6.73;;;4.80;98.30;;;6.62;66.32;98963.28;5031968;28;20117;-61
2023/12/15 04:20:51;;;;;;;10.73;6.27;;;4.90;98.70;;;6.66;66.34;98960.31;5032075;28;20044;-62
2023/12/15 04:23:19;;;;;;;10.73;6.73;;;4.90;97.90;;;6.66;66.31;98962.13;5032067;28;20041;-62
2023/12/15 04:25:47;;;;;;;10.93;5.77;;;4.90;98.00;;;6.66;66.09;98970.91;5031744;28;20041;-61
2023/12/15 04:28:14;;;;;;;7.67;4.93;;;4.90;97.80;;;6.68;65.87;98976.09;5029360;28;20041;-60
2023/12/15 04:30:42;;;;;;;11.57;6.30;;;4.90;97.80;;;6.70;66.08;98977.66;5031797;28;20046;-60
2023/12/15 04:33:10;;;;;;;11.37;6.30;;;4.90;98.30;;;6.73;66.59;98992.50;5032098;28;20046;-60
2023/12/15 04:35:37;;;;;;;9.90;5.90;;;4.90;98.20;;;6.73;66.12;98997.81;5031834;28;20037;-60
2023/12/15 04:38:05;;;;;;;12.23;6.13;;;4.90;97.70;;;6.70;66.33;98993.53;5031289;28;20060;-60
2023/12/15 04:40:33;;;;;;;13.20;6.47;;;4.80;97.90;;;6.74;65.91;98998.66;5031716;28;20413;-60
2023/12/15 04:43:00;;;;;;;10.23;6.87;;;4.90;98.20;;;6.76;66.28;98997.59;5013952;28;20520;-61
2023/12/15 04:45:29;;;;;;;10.40;6.37;;;4.90;98.20;;;6.80;65.99;98992.94;5031502;28;20049;-60
2023/12/15 04:47:56;;;;;;;11.23;6.63;;;5.00;98.30;;;6.81;66.09;98999.94;5023742;28;20045;-60
2023/12/15 04:50:24;;;;;;;10.07;5.73;;;4.90;97.70;;;6.81;65.70;99002.59;5031597;28;20394;-60
2023/12/15 04:52:52;;;;;;;9.03;6.50;;;5.00;97.60;;;6.83;65.71;99003.31;5031271;28;20046;-60
2023/12/15 04:55:19;;;;;;;11.80;6.03;;;5.00;97.30;;;6.84;66.15;98999.72;5031314;28;20057;-60
2023/12/15 04:57:47;;;;;;;9.53;5.63;;;5.00;97.00;;;6.86;65.61;99005.75;5029594;28;20523;-60
2023/12/15 05:00:17;;;;;;;11.97;6.33;;;5.00;96.50;;;6.86;65.64;99006.63;5030999;28;20048;-60
2023/12/15 05:02:44;;;;;;;10.37;5.83;;;5.10;96.60;;;6.86;65.71;99005.75;5029905;28;20355;-60
2023/12/15 05:05:12;;;;;;;10.70;5.83;;;5.10;96.10;;;6.88;65.49;99009.13;5031445;28;20049;-60
2023/12/15 05:07:39;;;;;;;11.57;6.20;;;5.10;96.00;;;6.86;65.95;99011.91;5031172;28;20406;-60
2023/12/15 05:10:07;;;;;;;9.27;5.50;;;5.00;95.20;;;6.87;65.91;99010.94;5031099;28;20042;-60
2023/12/15 05:12:36;;;;;;;12.03;6.20;;;5.00;95.50;;;6.86;65.66;99014.56;5030978;28;20068;-60
2023/12/15 05:15:05;;;;;;;9.60;5.97;;;5.00;96.10;;;6.87;65.69;99020.69;5031246;28;20049;-60
2023/12/15 05:17:33;;;;;;;9.70;6.10;;;5.00;96.00;;;6.88;65.36;99025.00;5030926;28;20436;-60
2023/12/15 05:20:04;;;;;;;11.27;6.13;;;5.00;95.60;;;6.89;65.78;99035.50;5023450;28;20052;-60
2023/12/15 05:22:31;;;;;;;9.87;6.77;;;5.10;95.40;;;6.87;65.69;99032.13;5031684;28;20056;-60
2023/12/15 05:25:18;;;;;;;12.73;6.63;;;5.00;95.60;;;6.87;65.70;99041.88;5031324;28;20041;-60
2023/12/15 05:27:45;;;;;;;9.33;5.80;;;5.00;95.30;;;6.86;65.37;99045.44;5030812;28;20046;-60
2023/12/15 05:30:13;;;;;;;11.83;6.43;;;5.00;96.00;;;6.85;65.61;99044.63;5031296;28;20053;-60
2023/12/15 05:32:41;;;;;;;10.63;5.73;;;5.00;95.40;;;6.86;65.32;99051.63;5030242;28;20062;-61
2023/12/15 05:35:09;;;;;;;11.43;6.37;;;5.00;95.20;;;6.89;65.53;99059.34;5031140;28;20041;-60
2023/12/15 05:37:37;;;;;;;9.37;5.60;;;5.10;96.50;;;6.89;65.61;99067.28;5030354;28;20048;-61
2023/12/15 05:40:05;;;;;;;12.33;6.33;;;5.10;95.00;;;6.90;65.35;99074.28;5031012;28;20053;-60
2023/12/15 05:42:33;;;;;;;11.60;6.20;;;5.00;95.10;;;6.87;65.54;99081.59;5030820;28;20045;-61
2023/12/15 05:45:01;;;;;;;12.43;7.33;;;5.10;95.30;;;6.90;65.64;99087.53;5030973;28;20044;-61
2023/12/15 05:47:30;;;;;;;18.10;9.57;;;5.10;95.30;;;6.96;65.47;99090.69;5030811;28;20060;-61
2023/12/15 05:49:58;;;;;;;16.13;8.03;;;5.10;94.70;;;6.97;65.44;99097.69;5031153;28;20049;-61
2023/12/15 05:52:25;;;;;;;12.83;7.20;;;5.10;95.30;;;6.99;65.62;99093.97;5030656;28;20056;-61
2023/12/15 05:54:53;;;;;;;10.00;6.50;;;5.20;94.90;;;7.00;65.45;99101.00;5030954;28;20046;-61
2023/12/15 05:57:21;;;;;;;11.87;7.13;;;5.20;95.00;;;7.03;65.42;99113.16;5030823;28;20041;-61
2023/12/15 05:59:49;;;;;;;11.30;6.10;;;5.20;95.10;;;7.06;65.39;99115.63;5030746;28;20041;-60
2023/12/15 06:02:17;;;;;;;12.20;6.53;;;5.30;95.30;;;7.06;65.50;99120.91;5029629;28;20049;-60
2023/12/15 06:04:45;;;;;;;10.73;6.43;;;5.20;94.30;;;7.07;65.47;99120.78;5030530;28;20041;-61
2023/12/15 06:07:13;;;;;;;11.10;6.50;;;5.30;94.50;;;7.10;65.09;99114.47;5030427;28;20056;-61
2023/12/15 06:09:40;;;;;;;9.40;6.23;;;5.30;94.30;;;7.06;64.94;99118.28;5030337;28;20056;-61
2023/12/15 06:12:09;;;;;;;9.27;6.10;;;5.20;94.60;;;7.04;65.22;99123.66;5033180;28;20072;-61
2023/12/15 06:14:37;;;;;;;9.47;6.50;;;5.20;94.60;;;7.07;65.00;99126.09;5034739;28;20049;-61
2023/12/15 06:17:08;;;;;;;10.30;5.97;;;5.30;94.80;;;7.07;65.35;99130.53;5034464;28;20412;-61
2023/12/15 06:19:40;;;;;;;12.03;6.70;;;5.30;94.60;;;7.07;64.95;99133.19;5034350;28;20436;-60
2023/12/15 06:22:07;;;;;;;9.40;5.47;;;5.30;94.60;;;7.06;65.41;99140.28;5026746;28;20044;-60
2023/12/15 06:24:35;;;;;;;11.43;7.00;;;5.30;94.90;;;7.07;65.17;99141.13;5034101;28;20045;-60
2023/12/15 06:27:03;;;;;;;11.33;7.40;;;5.30;94.80;;;7.07;65.16;99141.13;5032926;28;20057;-60
2023/12/15 06:29:31;;;;;;;15.63;7.73;;;5.30;95.30;;;7.08;65.16;99148.16;5034410;28;20041;-60
2023/12/15 06:31:59;;;;;;;12.23;7.93;;;5.30;95.40;;;7.08;65.32;99140.19;5033988;28;20041;-60
2023/12/15 06:34:26;;;;;;;11.90;8.93;;;5.30;95.00;;;7.05;65.30;99143.88;5034360;28;20049;-60
2023/12/15 06:36:54;;;;;;;13.50;7.37;;;5.30;95.70;;;7.09;65.44;99145.41;5033777;28;20049;-60
2023/12/15 06:39:22;;;;;;;11.97;8.03;;;5.30;95.70;;;7.12;65.31;99146.16;5034011;28;20041;-61
2023/12/15 06:41:49;;;;;;;13.23;6.93;;;5.30;95.90;;;7.13;65.48;99158.41;5033977;28;20042;-60
2023/12/15 06:44:17;;;;;;;13.63;8.00;;;5.30;95.50;;;7.14;65.32;99157.47;5032794;28;20037;-60
2023/12/15 06:46:46;;;;;;;12.13;7.77;;;5.30;96.40;;;7.17;65.20;99163.41;5033336;28;20053;-60
2023/12/15 06:49:14;;;;;;;12.33;8.03;;;5.30;95.90;;;7.17;65.47;99165.22;5033686;28;20143;-60
2023/12/15 06:51:46;;;;;;;16.53;8.07;;;5.30;96.60;;;7.20;65.43;99168.50;5033916;28;20046;-60
2023/12/15 06:54:13;;;;;;;16.20;8.60;;;5.40;96.20;;;7.18;65.40;99175.72;5033782;28;20053;-60
2023/12/15 06:56:41;;;;;;;16.03;9.60;;;5.30;96.40;;;7.19;65.65;99188.00;5033220;28;20052;-60
2023/12/15 06:59:09;;;;;;;14.77;8.43;;;5.40;96.60;;;7.17;65.33;99194.34;5032538;28;20046;-60
2023/12/15 07:01:36;;;;;;;16.90;8.87;;;5.30;96.70;;;7.17;65.68;99192.53;5033373;28;20041;-61
2023/12/15 07:04:04;;;;;;;16.27;7.53;;;5.30;97.00;;;7.17;65.56;99195.19;5032000;28;20429;-61
2023/12/15 07:06:35;;;;;;;15.73;8.47;;;5.30;97.20;;;7.20;65.55;99207.41;5033415;28;20037;-61
2023/12/15 07:09:03;;;;;;;16.17;9.23;;;5.40;97.60;;;7.24;65.83;99200.94;5032306;28;20144;-62
2023/12/15 07:11:31;;;;;;;14.97;8.87;;;5.50;97.00;;;7.25;65.76;99203.50;5033347;28;20038;-61
2023/12/15 07:13:58;;;;;;;14.90;9.00;;;5.50;97.40;;;7.26;65.59;99204.34;5033422;28;20053;-62
2023/12/15 07:16:26;;;;;;;15.43;9.07;;;5.50;96.90;;;7.23;65.44;99208.03;5034026;28;20041;-61
2023/12/15 07:18:53;;;;;;;19.70;10.33;;;5.40;97.70;;;7.23;65.69;99204.53;5033160;28;20045;-61
2023/12/15 07:21:21;;;;;;;19.63;10.57;;;5.50;98.10;;;7.22;65.89;99208.13;5032103;28;20037;-61
2023/12/15 07:23:49;;;;;;;20.73;10.87;;;5.50;97.50;;;7.18;65.91;99204.84;5032902;28;20037;-61
2023/12/15 07:26:17;;;;;;;19.97;11.10;;;5.40;98.00;;;7.23;65.99;99210.69;5032700;28;20049;-61
2023/12/15 07:28:45;;;;;;;19.87;11.93;;;5.40;97.90;;;7.24;66.01;99214.19;5029931;28;20041;-62
2023/12/15 07:31:12;;;;;;;20.50;11.70;;;5.50;99.00;;;7.27;65.89;99214.84;5024945;28;20041;-61
2023/12/15 07:33:40;;;;;;;19.60;11.90;;;5.50;99.20;;;7.32;66.09;99219.81;5033301;28;20048;-60
2023/12/15 07:36:09;;;;;;;18.17;10.60;;;5.60;98.90;;;7.35;66.00;99224.06;5032994;28;20068;-61
2023/12/15 07:38:37;;;;;;;17.97;10.27;;;5.60;98.30;;;7.34;65.99;99230.31;5033119;28;20497;-61
2023/12/15 07:41:06;;;;;;;15.73;9.13;;;5.60;98.50;;;7.38;66.19;99230.00;5032245;28;20049;-62
2023/12/15 07:43:34;;;;;;;19.23;10.70;;;5.60;98.40;;;7.41;66.24;99231.63;5015761;28;20041;-60
2023/12/15 07:46:01;;;;;;;14.33;9.00;;;5.60;97.80;;;7.41;66.02;99234.25;5030487;28;20045;-62
2023/12/15 07:48:29;;;;;;;16.07;9.07;;;5.60;97.60;;;7.40;65.92;99245.81;5028676;28;20038;-62
2023/12/15 07:50:57;;;;;;;14.97;9.40;;;5.50;97.90;;;7.40;65.99;99240.50;5030471;28;20144;-61
2023/12/15 07:53:25;;;;;;;18.63;9.53;;;5.50;98.20;;;7.40;65.93;99237.84;5033210;28;20057;-61
2023/12/15 07:55:53;;;;;;;14.07;9.30;;;5.50;98.50;;;7.41;65.92;99239.56;5031707;28;20052;-60
2023/12/15 07:58:20;;;;;;;17.83;10.60;;;5.50;98.30;;;7.41;66.09;99243.06;5032367;28;20053;-61
2023/12/15 08:00:48;;;;;;;15.47;9.83;;;5.50;98.20;;;7.39;65.67;99233.53;5031918;28;20502;-62
2023/12/15 08:03:16;;;;;;;15.23;9.03;;;5.50;98.50;;;7.36;65.86;99242.50;5024519;28;20042;-63
2023/12/15 08:05:43;;;;;;;16.10;9.73;;;5.40;98.10;;;7.32;65.63;99238.34;5032453;28;20044;-63
2023/12/15 08:08:11;;;;;;;16.33;10.23;;;5.40;98.60;;;7.29;65.56;99244.72;5032010;28;20045;-63
2023/12/15 08:10:39;;;;;;;19.80;9.90;;;5.40;99.40;;;7.32;65.95;99256.91;5032461;28;20089;-61
2023/12/15 08:13:10;;;;;;;17.60;8.53;;;5.40;99.20;;;7.36;66.15;99261.06;5032263;28;20056;-61
2023/12/15 08:15:38;;;;;;;14.60;9.27;;;5.50;98.50;;;7.36;66.09;99260.22;5032298;28;20056;-62
2023/12/15 08:18:05;;;;;;;13.03;8.60;;;5.60;98.20;;;7.37;66.17;99265.41;5031707;28;20409;-62
2023/12/15 08:20:33;;;;;;;12.43;8.27;;;5.60;98.70;;;7.38;66.27;99263.59;5031864;28;20041;-61
2023/12/15 08:23:01;;;;;;;14.63;9.00;;;5.60;97.90;;;7.40;66.35;99272.28;5032430;28;20051;-61
2023/12/15 08:25:29;;;;;;;14.87;9.17;;;5.60;98.20;;;7.40;66.42;99277.59;5032239;28;20509;-61
2023/12/15 08:27:56;;;;;;;13.07;8.10;;;5.70;99.10;;;7.40;66.25;99281.09;5031710;28;20048;-61
2023/12/15 08:30:24;;;;;;;11.50;7.47;;;5.70;97.30;;;7.37;66.24;99286.59;5032056;28;20064;-61
2023/12/15 08:32:51;;;;;;;12.93;8.00;;;5.60;97.60;;;7.42;66.29;99281.84;5030747;28;20045;-61
2023/12/15 08:35:19;;;;;;;14.20;7.50;;;5.70;97.80;;;7.47;66.36;99286.84;5029638;28;20044;-61
2023/12/15 08:37:47;;;;;;;16.60;8.60;;;5.80;97.30;;;7.52;66.20;99291.84;5031731;28;20429;-60
2023/12/15 08:40:14;;;;;;;13.10;7.30;;;5.80;96.90;;;7.53;66.06;99294.38;5031717;28;20068;-61
2023/12/15 08:42:42;;;;;;;12.80;7.67;;;5.90;96.70;;;7.57;66.04;99301.19;5031419;28;20052;-61
2023/12/15 08:45:10;;;;;;;12.23;7.87;;;5.90;96.20;;;7.60;65.99;99301.00;5031241;28;20046;-61
2023/12/15 08:47:37;;;;;;;12.53;7.37;;;6.00;95.20;;;7.64;65.89;99304.28;5031248;28;20037;-61
2023/12/15 08:50:06;;;;;;;10.93;6.23;;;6.00;95.50;;;7.67;65.88;99306.72;5031584;28;20516;-61
2023/12/15 08:52:34;;;;;;;11.83;7.27;;;6.00;95.30;;;7.67;66.00;99314.69;5031213;28;20045;-61
2023/12/15 08:55:02;;;;;;;11.80;7.57;;;6.00;94.70;;;7.68;65.87;99311.94;5029814;28;20049;-61
2023/12/15 08:57:29;;;;;;;13.67;7.53;;;6.00;94.70;;;7.70;65.72;99314.47;5031289;28;20420;-61
2023/12/15 08:59:57;;;;;;;11.87;8.13;;;6.00;94.90;;;7.69;65.71;99323.38;5031119;28;20047;-61
2023/12/15 09:02:26;;;;;;;12.87;7.73;;;6.00;95.00;;;7.67;65.75;99328.78;5031265;28;20049;-61
2023/12/15 09:04:53;;;;;;;11.60;6.20;;;6.00;94.70;;;7.67;65.78;99326.13;5031060;28;20048;-61
2023/12/15 09:07:32;;;;;;;10.00;6.10;;;6.00;95.70;;;7.75;65.69;99324.78;5031108;28;20037;-61
2023/12/15 09:10:00;;;;;;;13.60;6.80;;;6.10;95.90;;;7.78;65.74;99321.94;5031150;28;20060;-61
2023/12/15 09:12:28;;;;;;;13.47;8.47;;;6.10;94.80;;;7.76;65.65;99323.84;5030984;28;20052;-61
2023/12/15 09:14:56;;;;;;;12.67;6.70;;;6.10;95.20;;;7.80;65.64;99322.66;5030168;28;20049;-61
2023/12/15 09:17:24;;;;;;;14.10;7.40;;;6.10;95.20;;;7.81;65.67;99333.19;5030957;28;20095;-61
2023/12/15 09:19:51;;;;;;;12.47;7.67;;;6.20;94.70;;;7.85;65.57;99345.28;5031246;28;20042;-60
2023/12/15 09:22:19;;;;;;;10.13;7.13;;;6.20;93.80;;;7.85;65.28;99352.34;5030843;28;20041;-61
2023/12/15 09:24:47;;;;;;;11.80;8.23;;;6.10;94.30;;;7.86;65.46;99346.97;5029855;28;20044;-61
2023/12/15 09:27:14;;;;;;;10.50;6.70;;;6.20;93.60;;;7.89;65.50;99354.72;5030962;28;20456;-61
2023/12/15 09:29:42;;;;;;;13.13;8.47;;;6.10;94.30;;;7.91;65.45;99349.31;5031204;28;20050;-61
2023/12/15 09:32:10;;;;;;;15.27;9.20;;;6.10;95.00;;;7.91;65.55;99346.69;5030033;28;20056;-61
2023/12/15 09:34:37;;;;;;;19.00;10.80;;;6.10;94.90;;;7.92;65.27;99351.00;5031214;28;20042;-61
2023/12/15 09:37:05;;;;;;;13.17;7.27;;;6.10;95.10;;;7.92;65.09;99347.50;5030664;28;20398;-61
2023/12/15 09:39:33;;;;;;;10.90;7.00;;;6.20;94.20;;;7.93;65.11;99347.41;5030993;28;20049;-62
2023/12/15 09:42:01;;;;;;;10.93;6.83;;;6.10;94.50;;;7.93;65.15;99347.41;5030646;28;20493;-61
2023/12/15 09:44:28;;;;;;;10.37;6.57;;;6.10;94.40;;;7.94;65.09;99351.75;5031498;28;20038;-61
2023/12/15 09:46:58;;;;;;;11.53;7.47;;;6.10;94.60;;;7.97;65.25;99353.34;5034517;28;20396;-61
2023/12/15 09:49:27;;;;;;;11.80;7.37;;;6.20;93.90;;;7.98;65.03;99355.91;5025989;28;20041;-61
2023/12/15 09:52:00;;;;;;;13.30;6.93;;;6.20;94.60;;;8.01;64.99;99355.69;5033766;28;20048;-61
2023/12/15 09:54:28;;;;;;;9.67;6.23;;;6.30;95.30;;;8.04;65.07;99354.63;5025941;28;20045;-61
2023/12/15 09:56:56;;;;;;;9.97;6.53;;;6.30;94.30;;;8.04;65.12;99350.16;5035082;28;20045;-60
2023/12/15 09:59:23;;;;;;;10.03;5.83;;;6.30;93.30;;;8.06;65.06;99347.41;5035383;28;20052;-60
2023/12/15 10:01:51;;;;;;;9.73;6.33;;;6.40;93.40;;;8.06;64.97;99356.25;5033561;28;20056;-60
2023/12/15 10:04:19;;;;;;;10.80;7.70;;;6.40;93.20;;;8.09;64.89;99371.09;5033506;28;20041;-61
2023/12/15 10:06:47;;;;;;;12.73;7.13;;;6.40;93.50;;;8.15;65.06;99360.06;5034614;28;20441;-61
2023/12/15 10:09:15;;;;;;;12.60;6.17;;;6.50;92.90;;;8.20;65.06;99365.06;5034666;28;20046;-61
2023/12/15 10:11:46;;;;;;;10.97;6.37;;;6.60;92.30;;;8.24;64.89;99372.72;5034732;28;20045;-61
2023/12/15 10:14:15;;;;;;;10.60;6.27;;;6.70;91.60;;;8.26;64.96;99377.94;5033639;28;20076;-61
2023/12/15 10:16:43;;;;;;;10.13;5.93;;;6.70;91.30;;;8.27;64.54;99388.41;5034248;28;20045;-61
2023/12/15 10:19:10;;;;;;;8.70;6.30;;;6.70;91.90;;;8.34;64.78;99385.38;5034522;28;20049;-61
2023/12/15 10:21:38;;;;;;;9.10;5.37;;;6.80;91.50;;;8.38;64.30;99390.34;5034105;28;20057;-61
2023/12/15 10:24:22;;;;;;;9.90;6.40;;;6.80;91.30;;;8.44;64.51;99391.78;5034257;28;20049;-61
2023/12/15 10:26:50;;;;;;;8.93;5.63;;;6.80;91.40;;;8.47;64.53;99384.47;5034280;28;20048;-62
2023/12/15 10:29:19;;;;;;;10.30;6.90;;;6.90;91.40;;;8.54;64.59;99392.84;5029800;28;20054;-61
2023/12/15 10:31:50;;;;;;;8.80;5.67;;;6.90;92.30;;;8.58;64.52;99386.34;5033331;28;20052;-62